Time;durP1;ratioP1;P1;durP2;ratioP2;P2;SDS_P1;SDS_P2;PMS_P1;PMS_P2;Temp;Humidity;BMP_temperature;BMP_pressure;BME280_temperature;BME280_humidity;BME280_pressure;Samples;Min_cycle;Max_cycle;Signal;HPM_P1;HPM_P2
2023/02/19 00:01:20;;;;;;;2.08;1.88;;;10.50;99.90;;;;;;5051116;28;20208;-69
2023/02/19 00:03:50;;;;;;;1.85;1.60;;;10.50;99.90;;;;;;5050877;28;20209;-69
2023/02/19 00:06:18;;;;;;;3.15;2.00;;;10.50;99.90;;;;;;5050439;28;20212;-69
2023/02/19 00:08:46;;;;;;;1.75;1.65;;;10.50;99.90;;;;;;5050915;28;20208;-70
2023/02/19 00:11:16;;;;;;;2.90;2.00;;;10.50;99.90;;;;;;5050848;28;20208;-68
2023/02/19 00:13:44;;;;;;;2.67;1.90;;;10.50;99.90;;;;;;5050742;28;20212;-69
2023/02/19 00:16:13;;;;;;;2.25;2.10;;;10.50;99.90;;;;;;5050385;28;20664;-69
2023/02/19 00:18:40;;;;;;;1.92;1.73;;;10.50;99.90;;;;;;5050817;28;20212;-70
2023/02/19 00:21:07;;;;;;;3.40;1.60;;;10.50;99.90;;;;;;5050909;28;20395;-71
2023/02/19 00:23:34;;;;;;;2.78;1.75;;;10.50;99.90;;;;;;5050628;28;20695;-70
2023/02/19 00:26:04;;;;;;;2.65;1.98;;;10.50;99.90;;;;;;5049889;28;20708;-70
2023/02/19 00:28:31;;;;;;;1.98;1.75;;;10.50;99.90;;;;;;5050628;28;20205;-70
2023/02/19 00:31:04;;;;;;;1.50;1.40;;;10.40;99.90;;;;;;5050678;28;20205;-70
2023/02/19 00:33:31;;;;;;;1.88;1.70;;;10.50;99.90;;;;;;5050518;28;20205;-69
2023/02/19 00:36:00;;;;;;;1.75;1.65;;;10.50;99.90;;;;;;5050102;28;20263;-70
2023/02/19 00:38:26;;;;;;;1.85;1.75;;;10.40;99.90;;;;;;5050515;28;20204;-70
2023/02/19 00:40:53;;;;;;;1.58;1.48;;;10.50;99.90;;;;;;5050416;28;20231;-69
2023/02/19 00:43:21;;;;;;;1.80;1.45;;;10.50;99.90;;;;;;5050540;28;20263;-69
2023/02/19 00:45:48;;;;;;;1.70;1.42;;;10.40;99.90;;;;;;5049777;28;20229;-70
2023/02/19 00:48:14;;;;;;;2.10;1.70;;;10.40;99.90;;;;;;5050502;28;20708;-70
2023/02/19 00:50:41;;;;;;;1.75;1.65;;;10.40;99.90;;;;;;5050347;28;20212;-70
2023/02/19 00:53:08;;;;;;;2.22;1.58;;;10.40;99.90;;;;;;5050249;28;20224;-70
2023/02/19 00:55:35;;;;;;;1.40;1.30;;;10.40;99.90;;;;;;5049631;28;20247;-70
2023/02/19 00:58:01;;;;;;;2.00;1.35;;;10.50;99.90;;;;;;5050226;28;20232;-70
2023/02/19 01:00:29;;;;;;;1.70;1.30;;;10.40;99.90;;;;;;5052633;28;20216;-70
2023/02/19 01:02:56;;;;;;;1.40;1.27;;;10.40;99.90;;;;;;5054495;28;20209;-70
2023/02/19 01:05:23;;;;;;;2.05;1.85;;;10.30;99.90;;;;;;5053681;28;20248;-69
2023/02/19 01:07:49;;;;;;;2.35;1.60;;;10.30;99.90;;;;;;5054333;28;20221;-70
2023/02/19 01:10:16;;;;;;;1.88;1.55;;;10.30;99.90;;;;;;5054313;28;20262;-70
2023/02/19 01:12:43;;;;;;;1.40;1.30;;;10.30;99.90;;;;;;5054266;28;20215;-70
2023/02/19 01:15:10;;;;;;;2.70;1.80;;;10.30;99.90;;;;;;5053600;28;20204;-69
2023/02/19 01:17:38;;;;;;;2.60;1.60;;;10.30;99.90;;;;;;5054009;28;20221;-70
2023/02/19 01:20:05;;;;;;;1.42;1.17;;;10.20;99.90;;;;;;5054105;28;20205;-70
2023/02/19 01:22:32;;;;;;;2.33;2.13;;;10.20;99.90;;;;;;5053885;28;20258;-70
2023/02/19 01:24:58;;;;;;;1.50;1.40;;;10.20;99.90;;;;;;5053149;28;20225;-70
2023/02/19 01:27:25;;;;;;;1.63;1.48;;;10.10;99.90;;;;;;5053958;28;20225;-69
2023/02/19 01:29:52;;;;;;;1.73;1.63;;;10.10;99.90;;;;;;5054203;28;20213;-69
2023/02/19 01:32:18;;;;;;;1.58;1.48;;;10.20;99.90;;;;;;5053936;28;20205;-69
2023/02/19 01:34:46;;;;;;;1.75;1.60;;;10.10;99.90;;;;;;5053912;28;20212;-70
2023/02/19 01:37:13;;;;;;;1.80;1.50;;;10.10;99.90;;;;;;5053654;28;20217;-69
2023/02/19 01:39:40;;;;;;;1.80;1.60;;;10.00;99.90;;;;;;5053708;28;20575;-69
2023/02/19 01:42:13;;;;;;;1.95;1.55;;;10.00;99.90;;;;;;5054079;28;20283;-70
2023/02/19 01:45:22;;;;;;;1.88;1.63;;;10.00;99.90;;;;;;5053486;28;20216;-70
2023/02/19 01:47:55;;;;;;;3.00;1.50;;;10.00;99.90;;;;;;5053538;28;20221;-70
2023/02/19 01:50:23;;;;;;;1.98;1.60;;;10.00;99.90;;;;;;5053502;28;20213;-70
2023/02/19 01:52:50;;;;;;;1.50;1.40;;;10.00;99.90;;;;;;5053763;28;20209;-69
2023/02/19 01:55:17;;;;;;;1.90;1.80;;;10.00;99.90;;;;;;5052833;28;20197;-70
2023/02/19 01:57:46;;;;;;;1.77;1.65;;;10.00;99.90;;;;;;5053294;28;20236;-70
2023/02/19 02:00:16;;;;;;;2.03;1.80;;;9.90;99.90;;;;;;5053513;28;20205;-69
2023/02/19 02:02:46;;;;;;;2.53;1.80;;;9.90;99.90;;;;;;5053207;28;20209;-70
2023/02/19 02:05:24;;;;;;;2.05;1.73;;;9.90;99.90;;;;;;5052787;28;20220;-70
2023/02/19 02:10:37;;;;;;;2.13;1.77;;;9.90;99.90;;;;;;5052465;28;20263;-70
2023/02/19 02:13:03;;;;;;;1.88;1.50;;;9.90;99.90;;;;;;5052717;28;20703;-69
2023/02/19 02:15:39;;;;;;;1.73;1.52;;;9.90;99.90;;;;;;5052544;28;20220;-70
2023/02/19 02:18:15;;;;;;;1.52;1.33;;;9.90;99.90;;;;;;5052839;28;20742;-69
2023/02/19 02:21:04;;;;;;;1.85;1.50;;;9.90;99.90;;;;;;5052830;28;20590;-69
2023/02/19 02:23:46;;;;;;;1.73;1.60;;;9.80;99.90;;;;;;5052694;28;20259;-70
2023/02/19 02:26:31;;;;;;;2.05;1.42;;;9.80;99.90;;;;;;5052169;28;20227;-69
2023/02/19 02:29:21;;;;;;;2.17;1.52;;;9.80;99.90;;;;;;5052973;28;20208;-69
2023/02/19 02:31:51;;;;;;;1.58;1.48;;;9.80;99.90;;;;;;5052703;28;20205;-70
2023/02/19 02:34:23;;;;;;;3.05;2.17;;;9.80;99.90;;;;;;5052429;28;20672;-70
2023/02/19 02:36:54;;;;;;;1.60;1.50;;;9.80;99.90;;;;;;5051958;28;20228;-69
2023/02/19 02:39:24;;;;;;;1.77;1.65;;;9.70;99.90;;;;;;5052423;28;20209;-70
2023/02/19 02:44:37;;;;;;;2.20;1.63;;;9.70;99.90;;;;;;5051944;28;20653;-69
2023/02/19 02:47:39;;;;;;;1.70;1.60;;;9.70;99.90;;;;;;5051783;28;20225;-70
2023/02/19 02:50:04;;;;;;;1.40;1.30;;;9.70;99.90;;;;;;5052462;28;20204;-70
2023/02/19 02:55:17;;;;;;;2.70;1.80;;;9.70;99.90;;;;;;5051852;28;20210;-70
2023/02/19 02:57:44;;;;;;;2.08;1.60;;;9.70;99.90;;;;;;5051968;28;20283;-70
2023/02/19 03:00:13;;;;;;;3.03;1.80;;;9.70;99.90;;;;;;5052340;28;20575;-69
2023/02/19 03:02:42;;;;;;;2.08;1.50;;;9.60;99.90;;;;;;5052020;28;20212;-70
2023/02/19 03:08:03;;;;;;;2.00;1.80;;;9.60;99.90;;;;;;5052247;28;20220;-69
2023/02/19 03:10:38;;;;;;;2.33;1.60;;;9.60;99.90;;;;;;5052015;28;20197;-70
2023/02/19 03:21:32;;;;;;;1.98;1.58;;;9.60;99.90;;;;;;5051570;28;20208;-70
2023/02/19 03:26:52;;;;;;;1.67;1.45;;;9.50;99.90;;;;;;5051064;28;20278;-70
2023/02/19 03:29:24;;;;;;;1.40;1.30;;;9.50;99.90;;;;;;5051869;28;20197;-69
2023/02/19 03:31:54;;;;;;;3.50;2.10;;;9.40;99.90;;;;;;5051690;28;20205;-69
2023/02/19 03:34:27;;;;;;;1.70;1.60;;;9.40;99.90;;;;;;5051713;28;20204;-69
2023/02/19 03:37:00;;;;;;;1.48;1.35;;;9.40;99.90;;;;;;5051096;28;20229;-70
2023/02/19 03:39:27;;;;;;;2.30;1.83;;;9.30;99.90;;;;;;5051540;28;20676;-69
2023/02/19 03:42:03;;;;;;;1.50;1.40;;;9.30;99.90;;;;;;5051374;28;20216;-69
2023/02/19 03:44:41;;;;;;;1.60;1.50;;;9.20;99.90;;;;;;5051530;28;20204;-69
2023/02/19 03:47:15;;;;;;;1.60;1.50;;;9.20;99.90;;;;;;5050747;28;20714;-69
2023/02/19 03:49:48;;;;;;;1.75;1.25;;;9.20;99.90;;;;;;5051224;28;20215;-70
2023/02/19 03:52:19;;;;;;;1.48;1.38;;;9.10;99.90;;;;;;5051247;28;20205;-69
2023/02/19 03:54:52;;;;;;;1.30;1.20;;;9.20;99.90;;;;;;5051201;28;20205;-70
2023/02/19 03:57:23;;;;;;;1.42;1.33;;;9.20;99.90;;;;;;5051711;28;20236;-70
2023/02/19 03:59:55;;;;;;;2.55;1.45;;;9.20;99.90;;;;;;5051024;28;20201;-70
2023/02/19 04:02:29;;;;;;;1.30;1.20;;;9.10;99.90;;;;;;5051138;28;20201;-70
2023/02/19 04:05:04;;;;;;;1.30;1.20;;;9.10;99.90;;;;;;5050647;28;20406;-70
2023/02/19 04:07:34;;;;;;;1.30;0.90;;;9.00;99.90;;;;;;5050917;28;20220;-70
2023/02/19 04:10:02;;;;;;;1.30;1.00;;;9.10;99.90;;;;;;5051074;28;20350;-70
2023/02/19 04:12:30;;;;;;;1.00;0.90;;;9.00;99.90;;;;;;5050993;28;20224;-69
2023/02/19 04:15:01;;;;;;;1.10;1.00;;;9.00;99.90;;;;;;5050736;28;20212;-69
2023/02/19 04:17:35;;;;;;;1.10;1.00;;;9.00;99.90;;;;;;5050889;28;20217;-68
2023/02/19 04:20:07;;;;;;;1.65;1.15;;;9.00;99.90;;;;;;5051136;28;20672;-69
2023/02/19 04:22:34;;;;;;;1.20;1.10;;;9.10;99.90;;;;;;5050619;28;20197;-70
2023/02/19 04:25:01;;;;;;;1.10;0.90;;;9.10;99.90;;;;;;5050198;28;20216;-69
2023/02/19 04:27:28;;;;;;;2.05;1.10;;;9.00;99.90;;;;;;5050603;28;20512;-69
2023/02/19 04:29:55;;;;;;;0.90;0.70;;;9.00;99.90;;;;;;5050803;28;20205;-69
2023/02/19 04:32:22;;;;;;;1.20;1.00;;;9.00;99.90;;;;;;5050718;28;20234;-69
2023/02/19 04:34:48;;;;;;;1.17;0.98;;;9.00;99.90;;;;;;5049820;28;20566;-70
2023/02/19 04:37:16;;;;;;;1.95;0.80;;;9.00;99.90;;;;;;5050661;28;20307;-70
2023/02/19 04:39:43;;;;;;;0.90;0.80;;;9.00;99.90;;;;;;5050585;28;20743;-70
2023/02/19 04:42:10;;;;;;;0.90;0.80;;;9.00;99.90;;;;;;5050723;28;20205;-69
2023/02/19 04:44:37;;;;;;;0.80;0.80;;;9.00;99.90;;;;;;5050324;28;20205;-70
2023/02/19 04:47:04;;;;;;;0.90;0.80;;;9.00;99.90;;;;;;5050124;28;20617;-69
2023/02/19 04:49:31;;;;;;;1.05;0.73;;;9.00;99.90;;;;;;5050361;28;20201;-69
2023/02/19 04:51:57;;;;;;;1.20;0.80;;;8.90;99.90;;;;;;5050338;28;20209;-69
2023/02/19 04:54:25;;;;;;;0.80;0.70;;;8.90;99.90;;;;;;5050526;28;20208;-69
2023/02/19 04:56:52;;;;;;;0.80;0.70;;;8.90;99.90;;;;;;5049764;28;20221;-69
2023/02/19 04:59:19;;;;;;;0.80;0.70;;;8.90;99.90;;;;;;5050633;28;20204;-69
2023/02/19 05:01:45;;;;;;;1.00;0.70;;;9.00;99.90;;;;;;5050060;28;20205;-69
2023/02/19 05:04:12;;;;;;;0.80;0.70;;;8.90;99.90;;;;;;5050351;28;20607;-70
2023/02/19 05:06:39;;;;;;;0.80;0.70;;;8.90;99.90;;;;;;5049560;28;20228;-69
2023/02/19 05:09:05;;;;;;;0.82;0.75;;;8.90;99.90;;;;;;5050455;28;20205;-69
2023/02/19 05:11:33;;;;;;;0.90;0.80;;;8.90;99.90;;;;;;5050079;28;20203;-69
2023/02/19 05:14:00;;;;;;;0.80;0.70;;;8.90;99.90;;;;;;5050429;28;20223;-69
2023/02/19 05:16:27;;;;;;;0.98;0.88;;;9.00;99.90;;;;;;5049576;28;20213;-69
2023/02/19 05:18:54;;;;;;;1.00;0.80;;;9.00;99.90;;;;;;5050388;28;20664;-69
2023/02/19 05:21:20;;;;;;;0.70;0.60;;;9.00;99.90;;;;;;5050057;28;20209;-69
2023/02/19 05:23:47;;;;;;;1.77;0.70;;;9.00;99.90;;;;;;5049862;28;20197;-70
2023/02/19 05:26:16;;;;;;;0.80;0.70;;;9.00;99.90;;;;;;5049402;28;20217;-69
2023/02/19 05:28:45;;;;;;;0.95;0.88;;;9.00;99.90;;;;;;5049893;28;20244;-69
2023/02/19 05:31:12;;;;;;;1.00;0.80;;;9.00;99.90;;;;;;5050162;28;20209;-70
2023/02/19 05:33:41;;;;;;;0.77;0.65;;;9.00;99.90;;;;;;5050066;28;20672;-69
2023/02/19 05:36:10;;;;;;;0.90;0.73;;;9.00;99.90;;;;;;5049488;28;20267;-69
2023/02/19 05:38:38;;;;;;;0.90;0.80;;;9.10;99.90;;;;;;5049944;28;20201;-69
2023/02/19 05:41:09;;;;;;;0.90;0.70;;;9.00;99.90;;;;;;5049422;28;20554;-70
2023/02/19 05:43:36;;;;;;;0.80;0.70;;;9.00;99.90;;;;;;5049425;28;20205;-70
2023/02/19 05:46:05;;;;;;;0.80;0.80;;;9.00;99.90;;;;;;5050451;28;20719;-69
2023/02/19 05:48:31;;;;;;;0.80;0.70;;;9.10;99.90;;;;;;5053582;28;20209;-70
2023/02/19 05:51:02;;;;;;;0.80;0.70;;;9.10;99.90;;;;;;5053125;28;20574;-70
2023/02/19 05:53:29;;;;;;;0.85;0.60;;;9.20;99.90;;;;;;5057811;28;20200;-69
2023/02/19 05:55:56;;;;;;;0.80;0.70;;;9.20;99.90;;;;;;5072011;28;20203;-70
2023/02/19 05:58:22;;;;;;;0.82;0.68;;;9.20;99.90;;;;;;5072317;28;20486;-70
2023/02/19 06:00:50;;;;;;;0.80;0.70;;;9.20;99.90;;;;;;5072214;28;20223;-69
2023/02/19 06:03:18;;;;;;;1.00;0.80;;;9.10;99.90;;;;;;5072091;28;20200;-70
2023/02/19 06:05:45;;;;;;;0.80;0.60;;;9.10;99.90;;;;;;5071612;28;20208;-69
2023/02/19 06:08:13;;;;;;;0.70;0.60;;;9.10;99.90;;;;;;5072262;28;20633;-70
2023/02/19 06:10:41;;;;;;;0.70;0.60;;;9.10;99.90;;;;;;5071992;28;20216;-69
2023/02/19 06:13:08;;;;;;;0.70;0.70;;;9.00;99.90;;;;;;5072345;28;20231;-69
2023/02/19 06:15:35;;;;;;;0.70;0.60;;;9.10;99.90;;;;;;5063486;28;20201;-70
2023/02/19 06:18:02;;;;;;;0.70;0.60;;;9.10;99.90;;;;;;5051881;28;20217;-69
2023/02/19 06:20:31;;;;;;;0.70;0.60;;;9.00;99.90;;;;;;5053895;28;20573;-69
2023/02/19 06:22:58;;;;;;;0.70;0.60;;;9.00;99.90;;;;;;5071703;28;20675;-69
2023/02/19 06:25:25;;;;;;;0.70;0.60;;;8.90;99.90;;;;;;5071381;28;20192;-70
2023/02/19 06:27:51;;;;;;;0.80;0.70;;;8.90;99.90;;;;;;5071744;28;20223;-70
2023/02/19 06:30:18;;;;;;;0.70;0.60;;;8.80;99.90;;;;;;5071724;28;20196;-69
2023/02/19 06:32:45;;;;;;;0.90;0.70;;;8.80;99.90;;;;;;5071649;28;20196;-68
2023/02/19 06:35:12;;;;;;;0.80;0.70;;;8.70;99.90;;;;;;5071283;28;20200;-69
2023/02/19 06:37:40;;;;;;;0.80;0.70;;;8.70;99.90;;;;;;5071642;28;20571;-70
2023/02/19 06:40:08;;;;;;;1.00;0.70;;;8.70;99.90;;;;;;5058963;28;20194;-68
2023/02/19 06:42:35;;;;;;;0.90;0.70;;;8.70;99.90;;;;;;5057141;28;20211;-70
2023/02/19 06:45:02;;;;;;;0.75;0.60;;;8.70;99.90;;;;;;5051400;28;20197;-68
2023/02/19 06:47:31;;;;;;;0.80;0.80;;;8.70;99.90;;;;;;5052236;28;20228;-69
2023/02/19 06:49:58;;;;;;;0.85;0.70;;;8.70;99.90;;;;;;5054256;28;20227;-70
2023/02/19 06:52:25;;;;;;;1.10;0.80;;;8.70;99.90;;;;;;5070452;28;20584;-69
2023/02/19 06:54:53;;;;;;;0.98;0.82;;;8.80;99.90;;;;;;5069977;28;20193;-69
2023/02/19 06:57:20;;;;;;;0.90;0.80;;;8.80;99.90;;;;;;5061688;28;20220;-70
2023/02/19 06:59:46;;;;;;;0.90;0.73;;;8.80;99.90;;;;;;5052496;28;20197;-70
2023/02/19 07:02:13;;;;;;;0.90;0.80;;;8.80;99.90;;;;;;5052691;28;20196;-69
2023/02/19 07:04:40;;;;;;;1.00;0.90;;;8.80;99.90;;;;;;5050113;28;20509;-68
2023/02/19 07:07:06;;;;;;;0.80;0.70;;;8.80;99.90;;;;;;5072064;28;20231;-69
2023/02/19 07:09:33;;;;;;;0.93;0.82;;;8.90;99.90;;;;;;5072036;28;20663;-68
2023/02/19 07:12:01;;;;;;;0.80;0.70;;;8.90;99.90;;;;;;5071405;28;20566;-69
2023/02/19 07:14:28;;;;;;;0.90;0.80;;;8.90;99.90;;;;;;5071596;28;20200;-68
2023/02/19 07:16:55;;;;;;;0.98;0.90;;;8.90;99.90;;;;;;5070256;28;20216;-69
2023/02/19 07:19:22;;;;;;;1.75;1.00;;;8.90;99.90;;;;;;5071624;28;20209;-69
2023/02/19 07:21:48;;;;;;;0.77;0.68;;;8.90;99.90;;;;;;5070980;28;20667;-69
2023/02/19 07:24:15;;;;;;;1.00;0.80;;;8.90;99.90;;;;;;5071580;28;20204;-69
2023/02/19 07:26:42;;;;;;;0.95;0.70;;;8.90;99.90;;;;;;5070268;28;20703;-69
2023/02/19 07:29:10;;;;;;;1.30;1.00;;;8.90;99.90;;;;;;5071006;28;20204;-69
2023/02/19 07:31:37;;;;;;;0.80;0.60;;;8.90;99.90;;;;;;5070955;28;20196;-69
2023/02/19 07:34:03;;;;;;;0.75;0.68;;;8.90;99.90;;;;;;5070953;28;20209;-69
2023/02/19 07:36:30;;;;;;;0.85;0.75;;;8.90;99.90;;;;;;5070346;28;20216;-69
2023/02/19 07:38:58;;;;;;;1.15;0.90;;;8.90;99.90;;;;;;5070913;28;20204;-69
2023/02/19 07:41:26;;;;;;;1.77;0.80;;;8.90;99.90;;;;;;5069750;28;20196;-69
2023/02/19 07:43:53;;;;;;;1.05;0.93;;;8.90;99.90;;;;;;5071074;28;20201;-69
2023/02/19 07:46:22;;;;;;;0.88;0.85;;;8.90;99.90;;;;;;5059502;28;20707;-68
2023/02/19 07:48:49;;;;;;;1.05;0.95;;;8.90;99.90;;;;;;5046614;28;20213;-69
2023/02/19 07:51:18;;;;;;;1.10;1.00;;;9.00;99.90;;;;;;5060667;28;20209;-69
2023/02/19 07:53:46;;;;;;;1.90;1.25;;;9.00;99.90;;;;;;5069541;28;20228;-68
2023/02/19 07:56:13;;;;;;;1.60;1.20;;;9.00;99.90;;;;;;5069462;28;20204;-69
2023/02/19 07:58:40;;;;;;;1.10;1.00;;;9.00;99.90;;;;;;5069749;28;20688;-69
2023/02/19 08:01:08;;;;;;;1.20;1.10;;;9.00;99.90;;;;;;5069686;28;20212;-69
2023/02/19 08:03:36;;;;;;;1.42;1.10;;;9.10;99.90;;;;;;5069266;28;20576;-69
2023/02/19 08:06:03;;;;;;;0.95;0.85;;;9.10;99.90;;;;;;5069085;28;20203;-69
2023/02/19 08:08:29;;;;;;;1.50;1.00;;;9.20;99.90;;;;;;5069872;28;20227;-67
2023/02/19 08:13:44;;;;;;;1.10;1.00;;;9.40;99.90;;;;;;5069819;28;20784;-69
2023/02/19 08:16:14;;;;;;;1.15;1.05;;;9.40;99.90;;;;;;5068740;28;20596;-68
2023/02/19 08:18:43;;;;;;;0.93;0.85;;;9.40;99.90;;;;;;5069936;28;20228;-69
2023/02/19 08:21:10;;;;;;;1.52;1.20;;;9.50;99.90;;;;;;5069523;28;20199;-69
2023/02/19 08:23:37;;;;;;;1.50;1.30;;;9.50;99.90;;;;;;5059991;28;20211;-69
2023/02/19 08:26:05;;;;;;;1.30;1.10;;;9.60;99.90;;;;;;5068866;28;20193;-69
2023/02/19 08:28:32;;;;;;;1.15;0.80;;;9.50;99.90;;;;;;5049285;28;20278;-69
2023/02/19 08:31:01;;;;;;;1.17;1.00;;;9.50;99.90;;;;;;5049268;28;20200;-68
2023/02/19 08:33:29;;;;;;;2.13;1.00;;;9.40;99.90;;;;;;5054529;28;20197;-69
2023/02/19 08:36:03;;;;;;;1.05;0.95;;;9.30;99.90;;;;;;5048765;28;20229;-68
2023/02/19 08:38:30;;;;;;;1.35;1.08;;;9.30;99.90;;;;;;5049181;28;20207;-69
2023/02/19 08:40:56;;;;;;;1.00;0.90;;;9.20;99.90;;;;;;5048670;28;20201;-69
2023/02/19 08:43:23;;;;;;;2.25;0.90;;;9.20;99.90;;;;;;5049294;28;20695;-69
2023/02/19 08:45:53;;;;;;;0.93;0.82;;;9.20;99.90;;;;;;5048421;28;20201;-69
2023/02/19 08:48:19;;;;;;;1.00;0.90;;;9.20;99.90;;;;;;5049347;28;20760;-69
2023/02/19 08:50:53;;;;;;;1.00;0.85;;;9.20;99.90;;;;;;5049321;28;20229;-69
2023/02/19 08:53:21;;;;;;;1.50;0.93;;;9.20;99.90;;;;;;5048273;28;20204;-69
2023/02/19 08:55:48;;;;;;;1.10;0.98;;;9.30;99.90;;;;;;5048355;28;20208;-68
2023/02/19 08:58:15;;;;;;;2.08;1.17;;;9.40;99.90;;;;;;5049179;28;20221;-69
2023/02/19 09:00:41;;;;;;;2.00;0.88;;;9.50;99.90;;;;;;5048318;28;20227;-69
2023/02/19 09:03:09;;;;;;;1.05;0.82;;;9.50;99.90;;;;;;5048674;28;20622;-69
2023/02/19 09:05:37;;;;;;;1.00;0.90;;;9.50;99.90;;;;;;5047335;28;20215;-68
2023/02/19 09:08:04;;;;;;;3.65;1.08;;;9.50;99.90;;;;;;5046469;28;20696;-69
2023/02/19 09:10:32;;;;;;;1.00;0.85;;;9.50;99.90;;;;;;5047997;28;20549;-69
2023/02/19 09:12:59;;;;;;;2.67;1.10;;;9.50;99.90;;;;;;5048418;28;20581;-69
2023/02/19 09:15:27;;;;;;;1.55;0.95;;;9.50;99.90;;;;;;5048310;28;20243;-70
2023/02/19 09:17:54;;;;;;;1.13;0.88;;;9.50;99.90;;;;;;5048202;28;20217;-70
2023/02/19 09:20:20;;;;;;;1.10;1.00;;;9.60;99.90;;;;;;5050014;28;20201;-70
2023/02/19 09:22:47;;;;;;;1.42;1.10;;;9.60;99.90;;;;;;5052321;28;20205;-68
2023/02/19 09:25:14;;;;;;;1.23;0.98;;;9.60;99.90;;;;;;5052659;28;20660;-70
2023/02/19 09:27:42;;;;;;;2.85;1.25;;;9.70;99.90;;;;;;5052274;28;20224;-68
2023/02/19 09:30:09;;;;;;;0.93;0.82;;;9.80;99.90;;;;;;5052364;28;20197;-68
2023/02/19 09:32:36;;;;;;;1.23;1.13;;;9.90;99.90;;;;;;5052525;28;20559;-68
2023/02/19 09:35:02;;;;;;;1.10;1.00;;;9.90;99.90;;;;;;5052499;28;20609;-68
2023/02/19 09:37:29;;;;;;;1.20;0.90;;;9.90;99.90;;;;;;5055034;28;20217;-68
2023/02/19 09:39:56;;;;;;;1.52;1.20;;;9.80;99.90;;;;;;5052716;28;20205;-68
2023/02/19 09:42:26;;;;;;;1.15;1.05;;;9.80;99.90;;;;;;5051380;28;20208;-68
2023/02/19 09:44:56;;;;;;;1.90;1.13;;;9.80;99.90;;;;;;5051729;28;20209;-68
2023/02/19 09:47:25;;;;;;;1.20;1.10;;;9.80;99.90;;;;;;5052303;28;20637;-68
2023/02/19 09:49:55;;;;;;;1.00;0.90;;;9.90;99.90;;;;;;5052462;28;20205;-68
2023/02/19 09:52:31;;;;;;;1.58;1.00;;;9.90;99.90;;;;;;5053315;28;20209;-68
2023/02/19 09:55:01;;;;;;;1.35;1.10;;;10.00;99.90;;;;;;5052360;28;20201;-68
2023/02/19 09:57:30;;;;;;;1.80;1.10;;;10.00;99.90;;;;;;5052745;28;20225;-68
2023/02/19 10:00:04;;;;;;;0.90;0.80;;;10.00;99.90;;;;;;5055627;28;20566;-68
2023/02/19 10:02:30;;;;;;;1.27;1.02;;;9.90;99.90;;;;;;5050839;28;20197;-68
2023/02/19 10:04:58;;;;;;;4.50;1.10;;;9.90;99.90;;;;;;5051805;28;20204;-68
2023/02/19 10:07:28;;;;;;;1.25;1.05;;;9.90;99.90;;;;;;5052658;28;20499;-68
2023/02/19 10:09:58;;;;;;;2.50;1.20;;;9.90;99.90;;;;;;5052600;28;20205;-68
2023/02/19 10:12:27;;;;;;;2.65;1.40;;;9.90;99.90;;;;;;5051710;28;20687;-69
2023/02/19 10:15:01;;;;;;;2.10;0.80;;;9.80;99.90;;;;;;5052147;28;20205;-69
2023/02/19 10:17:33;;;;;;;2.47;1.10;;;9.80;99.90;;;;;;5051669;28;20224;-69
2023/02/19 10:20:03;;;;;;;1.00;0.80;;;9.80;99.90;;;;;;5051557;28;20208;-69
2023/02/19 10:22:30;;;;;;;1.65;1.10;;;9.80;99.90;;;;;;5051462;28;20292;-69
2023/02/19 10:24:58;;;;;;;1.90;1.10;;;9.80;99.90;;;;;;5050506;28;20204;-68
2023/02/19 10:27:29;;;;;;;1.25;1.10;;;9.70;99.90;;;;;;5050500;28;20221;-69
2023/02/19 10:29:56;;;;;;;0.90;0.80;;;9.70;99.90;;;;;;5051191;28;20212;-68
2023/02/19 10:32:26;;;;;;;2.63;1.08;;;9.60;99.90;;;;;;5050329;28;20209;-69
2023/02/19 10:35:12;;;;;;;1.20;1.00;;;9.60;99.90;;;;;;5051179;28;20221;-69
2023/02/19 10:37:43;;;;;;;1.00;0.90;;;9.70;99.90;;;;;;5051538;28;20245;-69
2023/02/19 10:40:16;;;;;;;1.10;0.90;;;9.80;99.90;;;;;;5051587;28;20197;-68
2023/02/19 10:42:46;;;;;;;1.13;0.90;;;10.00;99.90;;;;;;5050216;28;20205;-69
2023/02/19 10:45:19;;;;;;;1.15;1.00;;;10.20;99.90;;;;;;5051287;28;20201;-68
2023/02/19 10:47:47;;;;;;;1.08;0.98;;;10.20;99.90;;;;;;5050696;28;20229;-68
2023/02/19 10:50:23;;;;;;;1.70;1.15;;;10.30;99.90;;;;;;5051565;28;20193;-68
2023/02/19 10:52:52;;;;;;;1.20;1.00;;;10.20;99.90;;;;;;5050925;28;20203;-68
2023/02/19 10:55:27;;;;;;;1.95;1.40;;;10.10;99.90;;;;;;5049299;28;20197;-68
2023/02/19 10:57:54;;;;;;;1.08;0.88;;;10.10;99.90;;;;;;5050207;28;20261;-68
2023/02/19 11:00:25;;;;;;;1.80;1.20;;;10.10;99.90;;;;;;5050828;28;20209;-68
2023/02/19 11:03:13;;;;;;;1.40;0.80;;;10.20;99.90;;;;;;5050257;28;20215;-70
2023/02/19 11:05:52;;;;;;;2.97;0.88;;;10.20;99.90;;;;;;5050179;28;20634;-69
2023/02/19 11:08:22;;;;;;;1.55;1.02;;;10.20;99.90;;;;;;5050864;28;20599;-67
2023/02/19 11:10:49;;;;;;;3.28;1.20;;;10.20;99.90;;;;;;5050154;28;20571;-67
2023/02/19 11:13:21;;;;;;;1.40;1.20;;;10.30;99.90;;;;;;5050599;28;20621;-69
2023/02/19 11:15:52;;;;;;;1.85;1.00;;;10.30;99.90;;;;;;5050183;28;20200;-68
2023/02/19 11:18:23;;;;;;;2.58;1.05;;;10.40;99.90;;;;;;5050466;28;20213;-69
2023/02/19 11:20:53;;;;;;;0.93;0.73;;;10.30;99.90;;;;;;5050181;28;20204;-68
2023/02/19 11:23:24;;;;;;;4.28;1.40;;;10.30;99.90;;;;;;5050131;28;20221;-68
2023/02/19 11:25:52;;;;;;;1.75;1.02;;;10.30;99.90;;;;;;5049763;28;20204;-68
2023/02/19 11:28:29;;;;;;;1.25;0.93;;;10.40;99.90;;;;;;5050679;28;20224;-69
2023/02/19 11:31:14;;;;;;;1.00;0.80;;;10.40;99.90;;;;;;5049170;28;20201;-68
2023/02/19 11:33:45;;;;;;;2.10;1.10;;;10.40;99.90;;;;;;5050701;28;20575;-68
2023/02/19 11:36:34;;;;;;;1.13;1.02;;;10.30;99.90;;;;;;5058109;28;20197;-68
2023/02/19 11:39:19;;;;;;;1.17;1.08;;;10.30;99.90;;;;;;5048019;28;20201;-68
2023/02/19 11:42:11;;;;;;;4.32;1.20;;;10.30;99.90;;;;;;5049069;28;20247;-68
2023/02/19 11:44:49;;;;;;;1.75;0.90;;;10.20;99.90;;;;;;5049622;28;20197;-69
2023/02/19 11:47:45;;;;;;;1.23;0.98;;;10.30;99.90;;;;;;5044963;28;20217;-67
2023/02/19 11:50:24;;;;;;;1.90;1.00;;;10.30;99.90;;;;;;5048721;28;20718;-69
2023/02/19 11:53:00;;;;;;;4.60;1.33;;;10.30;99.90;;;;;;5049308;28;20209;-69
2023/02/19 11:55:39;;;;;;;0.90;0.80;;;10.20;99.90;;;;;;5045553;28;20207;-68
2023/02/19 11:58:23;;;;;;;4.85;1.55;;;10.20;99.90;;;;;;5042743;28;20224;-68
2023/02/19 12:00:55;;;;;;;1.15;1.05;;;10.30;99.90;;;;;;5049834;28;20205;-69
2023/02/19 12:03:43;;;;;;;2.35;1.10;;;10.20;99.90;;;;;;5044341;28;20205;-69
2023/02/19 12:06:22;;;;;;;1.63;0.90;;;10.20;99.90;;;;;;5049957;28;20576;-70
2023/02/19 12:09:13;;;;;;;1.73;1.15;;;10.30;99.90;;;;;;5049138;28;20726;-69
2023/02/19 12:12:00;;;;;;;1.15;1.00;;;10.40;99.90;;;;;;5038649;28;20611;-69
2023/02/19 12:14:59;;;;;;;2.75;1.00;;;10.30;99.90;;;;;;5049633;28;20197;-67
2023/02/19 12:18:01;;;;;;;1.50;1.02;;;10.30;99.90;;;;;;5049128;28;20236;-69
2023/02/19 12:20:34;;;;;;;1.30;0.90;;;10.30;99.90;;;;;;5037703;28;20200;-69
2023/02/19 12:23:31;;;;;;;2.60;1.15;;;10.30;99.90;;;;;;5044654;28;20201;-68
2023/02/19 12:26:04;;;;;;;1.63;1.30;;;10.40;99.90;;;;;;5044641;28;20200;-70
2023/02/19 12:28:44;;;;;;;1.88;1.45;;;10.50;99.90;;;;;;5046212;28;20220;-69
2023/02/19 12:31:33;;;;;;;1.10;0.98;;;10.60;99.90;;;;;;5041993;28;20201;-70
2023/02/19 12:34:16;;;;;;;1.30;1.08;;;10.60;99.90;;;;;;5048823;28;20193;-69
2023/02/19 12:36:53;;;;;;;1.77;1.00;;;10.70;99.90;;;;;;5049359;28;20638;-69
2023/02/19 12:39:30;;;;;;;1.20;0.90;;;10.90;99.90;;;;;;5049818;28;20196;-69
2023/02/19 12:42:03;;;;;;;1.95;1.10;;;11.20;99.90;;;;;;5048892;28;20254;-68
2023/02/19 12:44:37;;;;;;;2.08;1.00;;;11.60;99.90;;;;;;5049278;28;20259;-69
2023/02/19 12:47:07;;;;;;;4.60;1.52;;;12.10;99.90;;;;;;5049330;28;20220;-70
2023/02/19 12:49:37;;;;;;;2.50;1.38;;;12.30;99.90;;;;;;5049595;28;20217;-69
2023/02/19 12:52:09;;;;;;;1.30;0.95;;;12.20;99.90;;;;;;5049338;28;20205;-69
2023/02/19 12:54:41;;;;;;;1.60;0.95;;;12.00;99.90;;;;;;5041972;28;20201;-69
2023/02/19 12:57:12;;;;;;;2.90;1.13;;;11.90;99.90;;;;;;5047336;28;20254;-69
2023/02/19 12:59:43;;;;;;;1.67;1.20;;;11.90;99.90;;;;;;5049763;28;20682;-70
2023/02/19 13:02:16;;;;;;;2.83;1.23;;;11.80;99.90;;;;;;5048323;28;20620;-70
2023/02/19 13:04:48;;;;;;;1.95;0.90;;;11.70;99.90;;;;;;5042473;28;20211;-70
2023/02/19 13:07:20;;;;;;;1.00;0.90;;;11.90;99.90;;;;;;5049108;28;20220;-70
2023/02/19 13:09:51;;;;;;;0.93;0.82;;;12.30;99.90;;;;;;5054150;28;20235;-69
2023/02/19 13:12:24;;;;;;;1.80;0.80;;;12.50;99.90;;;;;;5044792;28;20591;-69
2023/02/19 13:14:57;;;;;;;1.70;0.80;;;12.60;99.90;;;;;;5044246;28;20205;-70
2023/02/19 13:17:29;;;;;;;1.70;0.98;;;12.50;99.90;;;;;;5046109;28;20279;-70
2023/02/19 13:20:00;;;;;;;4.78;1.10;;;12.40;99.90;;;;;;5052652;28;20196;-69
2023/02/19 13:25:22;;;;;;;1.10;0.82;;;12.10;99.90;;;;;;5037646;28;20204;-70
2023/02/19 13:28:10;;;;;;;1.65;1.00;;;12.10;99.90;;;;;;5043892;28;20228;-70
2023/02/19 13:31:03;;;;;;;2.25;0.90;;;12.30;99.90;;;;;;5041853;28;20205;-69
2023/02/19 13:33:43;;;;;;;1.40;0.82;;;12.30;99.90;;;;;;5044454;28;20292;-69
2023/02/19 13:36:19;;;;;;;1.80;1.15;;;12.30;99.90;;;;;;5042868;28;20228;-69
2023/02/19 13:38:49;;;;;;;1.85;1.08;;;12.10;99.90;;;;;;5044600;28;20471;-70